createdAt,value
2018-03-30T00:02:01.383Z,5.87
2018-03-30T00:04:29.621Z,5.90
2018-03-30T00:07:12.747Z,6.37
2018-03-30T00:09:52.977Z,6.53
2018-03-30T00:12:21.189Z,5.23
2018-03-30T00:14:51.334Z,5.67
2018-03-30T00:17:19.652Z,5.37
2018-03-30T00:19:48.630Z,6.00
2018-03-30T00:22:16.869Z,5.67
2018-03-30T00:24:45.143Z,5.60
2018-03-30T00:27:13.359Z,5.23
2018-03-30T00:29:41.606Z,5.13
2018-03-30T00:32:09.833Z,4.97
2018-03-30T00:34:38.089Z,5.10
2018-03-30T00:37:06.309Z,5.40
2018-03-30T00:39:34.584Z,5.23
2018-03-30T00:42:03.561Z,5.33
2018-03-30T00:44:32.563Z,5.00
2018-03-30T00:47:00.788Z,5.00
2018-03-30T00:49:29.028Z,4.70
2018-03-30T00:51:57.263Z,5.27
2018-03-30T00:54:26.265Z,5.50
2018-03-30T00:56:55.290Z,5.40
2018-03-30T00:59:24.293Z,5.60
2018-03-30T01:01:52.532Z,5.27
2018-03-30T01:04:21.540Z,5.67
2018-03-30T01:06:49.780Z,6.90
2018-03-30T01:09:18.003Z,6.63
2018-03-30T01:11:46.243Z,6.20
2018-03-30T01:14:14.471Z,5.60
2018-03-30T01:16:42.713Z,5.43
2018-03-30T01:19:10.935Z,6.60
2018-03-30T01:21:39.184Z,7.47
2018-03-30T01:24:07.412Z,7.17
2018-03-30T01:26:35.664Z,6.57
2018-03-30T01:29:03.897Z,6.87
2018-03-30T01:31:32.164Z,6.57
2018-03-30T01:34:00.356Z,6.87
2018-03-30T01:36:28.597Z,6.40
2018-03-30T01:38:56.826Z,7.30
2018-03-30T01:41:25.065Z,7.47
2018-03-30T01:43:54.057Z,7.20
2018-03-30T01:46:23.059Z,7.07
2018-03-30T01:48:51.302Z,7.60
2018-03-30T01:51:19.547Z,7.17
2018-03-30T01:53:47.769Z,6.80
2018-03-30T01:56:16.777Z,6.77
2018-03-30T01:58:45.013Z,6.83
2018-03-30T02:01:13.290Z,6.60
2018-03-30T02:03:41.508Z,6.50
2018-03-30T02:06:09.760Z,7.17
2018-03-30T02:08:37.988Z,7.30
2018-03-30T02:11:06.231Z,8.20
2018-03-30T02:13:34.461Z,6.60
2018-03-30T02:16:02.708Z,6.53
2018-03-30T02:18:30.944Z,7.13
2018-03-30T02:20:59.953Z,7.83
2018-03-30T02:23:28.184Z,6.53
2018-03-30T02:25:56.423Z,6.30
2018-03-30T02:28:24.640Z,7.17
2018-03-30T02:30:52.882Z,7.57
2018-03-30T02:33:21.117Z,7.10
2018-03-30T02:35:50.131Z,7.57
2018-03-30T02:38:18.358Z,7.03
2018-03-30T02:40:46.636Z,8.40
2018-03-30T02:43:14.869Z,8.00
2018-03-30T02:45:43.106Z,8.03
2018-03-30T02:48:11.333Z,8.00
2018-03-30T02:50:39.594Z,7.70
2018-03-30T02:53:07.807Z,7.73
2018-03-30T02:55:36.052Z,7.67
2018-03-30T02:58:04.301Z,7.30
2018-03-30T03:00:33.308Z,7.40
2018-03-30T03:03:01.561Z,8.07
2018-03-30T03:05:29.796Z,7.60
2018-03-30T03:07:58.040Z,7.50
2018-03-30T03:10:26.264Z,8.40
2018-03-30T03:12:54.527Z,6.57
2018-03-30T03:15:22.753Z,7.00
2018-03-30T03:17:51.781Z,8.03
2018-03-30T03:20:20.013Z,8.27
2018-03-30T03:22:48.252Z,8.00
2018-03-30T03:25:16.486Z,6.00
2018-03-30T03:27:44.726Z,7.30
2018-03-30T03:30:12.950Z,6.10
2018-03-30T03:32:41.196Z,7.10
2018-03-30T03:35:15.041Z,7.03
2018-03-30T03:37:43.289Z,6.60
2018-03-30T03:40:11.559Z,7.00
2018-03-30T03:42:39.763Z,6.73
2018-03-30T03:45:07.992Z,7.77
2018-03-30T03:47:36.233Z,6.67
2018-03-30T03:50:04.450Z,7.10
2018-03-30T03:52:33.469Z,7.07
2018-03-30T03:55:01.693Z,7.80
2018-03-30T03:57:29.939Z,7.27
2018-03-30T03:59:58.175Z,8.03
2018-03-30T04:02:27.202Z,7.33
2018-03-30T04:04:55.435Z,7.67
2018-03-30T04:07:23.692Z,8.47
2018-03-30T04:09:51.916Z,7.70
2018-03-30T04:12:20.157Z,7.03
2018-03-30T04:14:48.406Z,7.60
2018-03-30T04:17:16.627Z,7.93
2018-03-30T04:19:45.652Z,6.90
2018-03-30T04:22:13.883Z,8.13
2018-03-30T04:24:42.133Z,8.00
2018-03-30T04:27:10.424Z,7.97
2018-03-30T04:29:38.611Z,7.83
2018-03-30T04:32:06.841Z,9.33
2018-03-30T04:34:35.091Z,8.40
2018-03-30T04:37:03.324Z,8.60
2018-03-30T04:39:31.573Z,8.10
2018-03-30T04:41:59.800Z,8.07
2018-03-30T04:44:28.821Z,8.37
2018-03-30T04:46:57.053Z,8.60
2018-03-30T04:49:25.307Z,9.73
2018-03-30T04:51:53.524Z,8.60
2018-03-30T04:54:22.548Z,7.50
2018-03-30T04:56:50.771Z,8.50
2018-03-30T04:59:19.002Z,7.10
2018-03-30T05:01:47.246Z,8.20
2018-03-30T05:04:16.246Z,7.30
2018-03-30T05:06:45.248Z,7.70
2018-03-30T05:09:13.477Z,7.47
2018-03-30T05:11:41.723Z,7.47
2018-03-30T05:14:09.939Z,8.50
2018-03-30T05:16:38.179Z,8.10
2018-03-30T05:19:06.408Z,8.23
2018-03-30T05:21:35.441Z,8.63
2018-03-30T05:24:03.656Z,8.50
2018-03-30T05:26:31.962Z,10.10
2018-03-30T05:29:00.149Z,8.30
2018-03-30T05:31:28.404Z,7.73
2018-03-30T05:33:56.629Z,8.70
2018-03-30T05:36:24.869Z,8.30
2018-03-30T05:38:53.876Z,9.10
2018-03-30T05:41:22.126Z,8.70
2018-03-30T05:43:51.116Z,8.17
2018-03-30T05:46:21.052Z,9.30
2018-03-30T05:48:49.259Z,8.63
2018-03-30T05:51:17.522Z,9.00
2018-03-30T05:53:45.755Z,8.33
2018-03-30T05:56:14.764Z,7.80
2018-03-30T05:58:43.761Z,8.40
2018-03-30T06:01:12.757Z,8.03
2018-03-30T06:03:41.012Z,7.53
2018-03-30T06:06:10.013Z,10.00
2018-03-30T06:08:39.028Z,8.83
2018-03-30T06:11:08.008Z,8.43
2018-03-30T06:13:37.024Z,9.03
2018-03-30T06:16:05.270Z,7.83
2018-03-30T06:18:34.290Z,8.80
2018-03-30T06:21:02.527Z,9.73
2018-03-30T06:23:31.561Z,8.37
2018-03-30T06:25:59.789Z,8.90
2018-03-30T06:28:28.048Z,8.37
2018-03-30T06:30:56.272Z,8.30
2018-03-30T06:33:25.324Z,9.53
2018-03-30T06:35:53.577Z,9.53
2018-03-30T06:38:21.826Z,8.80
2018-03-30T06:40:50.069Z,9.80
2018-03-30T06:43:18.308Z,9.13
2018-03-30T06:45:48.456Z,8.23
2018-03-30T06:48:16.712Z,8.67
2018-03-30T06:50:44.965Z,7.67
2018-03-30T06:53:13.218Z,8.40
2018-03-30T06:55:42.235Z,8.40
2018-03-30T06:58:10.484Z,8.20
2018-03-30T07:00:41.375Z,7.73
